LSMA METAR and TAF | Updated Today

LSMA METAR

Alpnach Air Base

Observation time: 3 min. ago

LSMA 200750Z 00000KT CAVOK 21/12 Q1024 RMK BLU

Need help? Read our tutorial on how to read METARs or read the parsed version below.

Alpnach Air Base (LSMA) METAR

  • Weather conditions on Fri, 20 May 2022 07:50:00 +0000 (3 min. ago):
  • Present conditions: Dry
  • Clouds: Clear skies
  • Visibility: Greater than 10 km
  • Wind: Calm
  • Temperature: 21 celsius
  • Dew point: 12 celsius
  • Pressure: 1024 millibars
  • Remarks: BLU


Useful to know...